createdAt,value
2022-10-09T00:00:25.074Z,98423.84
2022-10-09T00:02:53.053Z,98416.50
2022-10-09T00:05:23.757Z,98415.16
2022-10-09T00:07:51.782Z,98424.88
2022-10-09T00:10:21.230Z,98433.91
2022-10-09T00:12:49.557Z,98426.50
2022-10-09T00:15:17.952Z,98420.63
2022-10-09T00:17:46.309Z,98423.94
2022-10-09T00:20:14.950Z,98427.69
2022-10-09T00:22:43.575Z,98425.97
2022-10-09T00:25:11.680Z,98426.81
2022-10-09T00:27:41.758Z,98428.34
2022-10-09T00:30:11.131Z,98426.81
2022-10-09T00:32:39.238Z,98426.22
2022-10-09T00:35:07.922Z,98429.09
2022-10-09T00:37:36.078Z,98434.34
2022-10-09T00:40:04.371Z,98430.91
2022-10-09T00:42:32.926Z,98429.94
2022-10-09T00:45:02.804Z,98429.25
2022-10-09T00:47:32.606Z,98428.22
2022-10-09T00:50:02.905Z,98431.34
2022-10-09T00:52:31.242Z,98426.28
2022-10-09T00:54:59.244Z,98428.25
2022-10-09T00:57:27.428Z,98419.22
2022-10-09T00:59:55.593Z,98427.09
2022-10-09T01:02:25.078Z,98425.09
2022-10-09T01:04:53.069Z,98420.53
2022-10-09T01:07:30.942Z,98428.22
2022-10-09T01:10:02.985Z,98424.97
2022-10-09T01:12:42.946Z,98423.91
2022-10-09T01:15:15.578Z,98422.38
2022-10-09T01:17:46.915Z,98426.66
2022-10-09T01:20:35.298Z,98422.31
2022-10-09T01:23:18.903Z,98424.28
2022-10-09T01:25:52.835Z,98426.16
2022-10-09T01:28:22.486Z,98423.78
2022-10-09T01:30:50.922Z,98428.66
2022-10-09T01:33:19.278Z,98424.22
2022-10-09T01:35:47.273Z,98421.03
2022-10-09T01:38:15.614Z,98420.06
2022-10-09T01:40:43.982Z,98416.72
2022-10-09T01:43:11.949Z,98411.03
2022-10-09T01:45:43.438Z,98417.22
2022-10-09T01:48:18.078Z,98410.25
2022-10-09T01:50:47.090Z,98409.84
2022-10-09T01:53:16.755Z,98406.16
2022-10-09T01:55:46.366Z,98406.16
2022-10-09T01:58:17.294Z,98407.19
2022-10-09T02:00:48.440Z,98402.06
2022-10-09T02:03:17.163Z,98403.56
2022-10-09T02:05:45.360Z,98395.88
2022-10-09T02:08:13.882Z,98391.28
2022-10-09T02:10:41.982Z,98384.34
2022-10-09T02:13:10.005Z,98383.28
2022-10-09T02:15:39.293Z,98385.72
2022-10-09T02:18:10.410Z,98381.84
2022-10-09T02:20:39.687Z,98382.63
2022-10-09T02:23:08.395Z,98377.63
2022-10-09T02:25:36.382Z,98375.75
2022-10-09T02:28:04.567Z,98376.91
2022-10-09T02:30:42.941Z,98381.34
2022-10-09T02:33:12.352Z,98376.13
2022-10-09T02:35:40.365Z,98387.53
2022-10-09T02:38:08.330Z,98375.25
2022-10-09T02:40:36.350Z,98373.53
2022-10-09T02:43:04.782Z,98376.28
2022-10-09T02:45:33.114Z,98373.03
2022-10-09T02:48:01.180Z,98370.97
2022-10-09T02:50:30.547Z,98369.75
2022-10-09T02:52:58.814Z,98383.16
2022-10-09T02:55:26.896Z,98375.75
2022-10-09T02:57:55.306Z,98378.41
2022-10-09T03:00:23.349Z,98382.28
2022-10-09T03:02:51.734Z,98377.63
2022-10-09T03:05:20.128Z,98375.22
2022-10-09T03:07:53.142Z,98382.28
2022-10-09T03:10:21.863Z,98378.56
2022-10-09T03:12:50.069Z,98376.81
2022-10-09T03:15:18.485Z,98373.50
2022-10-09T03:17:46.515Z,98364.59
2022-10-09T03:20:14.777Z,98376.63
2022-10-09T03:22:43.236Z,98376.25
2022-10-09T03:25:12.587Z,98377.25
2022-10-09T03:27:40.592Z,98381.81
2022-10-09T03:30:11.794Z,98371.63
2022-10-09T03:32:39.798Z,98377.50
2022-10-09T03:35:08.241Z,98376.47
2022-10-09T03:37:36.308Z,98371.72
2022-10-09T03:40:05.171Z,98364.19
2022-10-09T03:42:35.577Z,98368.03
2022-10-09T03:45:04.884Z,98369.63
2022-10-09T03:47:33.121Z,98365.34
2022-10-09T03:50:01.352Z,98358.53
2022-10-09T03:52:29.400Z,98362.91
2022-10-09T03:54:57.654Z,98363.09
2022-10-09T03:57:25.670Z,98369.94
2022-10-09T03:59:55.563Z,98367.09
2022-10-09T04:02:23.698Z,98369.44
2022-10-09T04:04:51.801Z,98376.31
2022-10-09T04:07:21.358Z,98372.81
2022-10-09T04:09:50.047Z,98365.28
2022-10-09T04:12:18.069Z,98359.66
2022-10-09T04:14:46.394Z,98366.41
2022-10-09T04:17:15.787Z,98363.25
2022-10-09T04:19:43.825Z,98367.88
2022-10-09T04:22:11.873Z,98362.22
2022-10-09T04:24:39.862Z,98364.59
2022-10-09T04:27:07.836Z,98368.13
2022-10-09T04:29:36.271Z,98362.44
2022-10-09T04:32:04.282Z,98362.72
2022-10-09T04:34:33.701Z,98359.78
2022-10-09T04:37:01.724Z,98354.25
2022-10-09T04:39:29.774Z,98355.78
2022-10-09T04:41:57.784Z,98358.28
2022-10-09T04:44:26.220Z,98353.91
2022-10-09T04:46:54.457Z,98348.75
2022-10-09T04:49:22.512Z,98354.94
2022-10-09T04:51:52.267Z,98351.97
2022-10-09T04:54:20.241Z,98351.03
2022-10-09T04:56:48.341Z,98350.94
2022-10-09T04:59:16.610Z,98343.72
2022-10-09T05:01:44.743Z,98345.59
2022-10-09T05:04:12.825Z,98345.50
2022-10-09T05:06:40.786Z,98342.84
2022-10-09T05:09:10.577Z,98327.97
2022-10-09T05:11:42.526Z,98333.81
2022-10-09T05:14:11.024Z,98336.47
2022-10-09T05:17:08.168Z,98336.09
2022-10-09T05:19:27.287Z,98329.50
2022-10-09T05:21:56.016Z,98328.75
2022-10-09T05:24:26.963Z,98335.41
2022-10-09T05:26:55.996Z,98334.38
2022-10-09T05:29:24.041Z,98334.47
2022-10-09T05:31:52.131Z,98335.06
2022-10-09T05:34:20.620Z,98334.47
2022-10-09T05:36:48.753Z,98332.47
2022-10-09T05:39:17.448Z,98335.13
2022-10-09T05:41:47.507Z,98333.91
2022-10-09T05:44:15.918Z,98331.44
2022-10-09T05:46:43.948Z,98329.72
2022-10-09T05:49:12.171Z,98328.00
2022-10-09T05:51:42.799Z,98329.72
2022-10-09T05:54:11.405Z,98335.91
2022-10-09T05:56:40.822Z,98327.81
2022-10-09T05:59:11.445Z,98326.09
2022-10-09T06:01:40.388Z,98330.66
2022-10-09T06:04:10.984Z,98328.47
2022-10-09T06:06:39.690Z,98325.63
2022-10-09T06:09:07.783Z,98330.19
2022-10-09T06:11:36.595Z,98328.28
2022-10-09T06:14:05.511Z,98330.09
2022-10-09T06:16:36.297Z,98340.94
2022-10-09T06:19:04.525Z,98327.59
2022-10-09T06:21:32.630Z,98326.25
2022-10-09T06:24:02.851Z,98335.03
2022-10-09T06:26:31.740Z,98331.50
2022-10-09T06:29:00.712Z,98332.00
2022-10-09T06:31:29.508Z,98327.31
2022-10-09T06:33:59.584Z,98331.53
2022-10-09T06:36:28.570Z,98327.13
2022-10-09T06:38:56.665Z,98328.84
2022-10-09T06:41:25.620Z,98328.38
2022-10-09T06:43:54.280Z,98339.03
2022-10-09T06:46:24.308Z,98335.41
2022-10-09T06:48:53.138Z,98344.19
2022-10-09T06:51:23.899Z,98340.56
2022-10-09T06:53:53.490Z,98342.94
2022-10-09T06:56:22.395Z,98340.44
2022-10-09T06:58:50.627Z,98344.28
2022-10-09T07:01:19.399Z,98349.31
2022-10-09T07:03:48.323Z,98348.13
2022-10-09T07:06:17.001Z,98350.34
2022-10-09T07:08:47.343Z,98348.56
2022-10-09T07:11:15.945Z,98346.31
2022-10-09T07:13:47.643Z,98345.63
2022-10-09T07:16:19.115Z,98342.78
2022-10-09T07:19:26.803Z,98343.13
2022-10-09T07:22:27.993Z,98345.50
2022-10-09T07:25:54.631Z,98336.13
2022-10-09T07:31:59.084Z,98339.69
2022-10-09T07:42:12.894Z,98331.69
2022-10-09T07:44:41.073Z,98333.63
2022-10-09T07:47:11.157Z,98324.22
2022-10-09T07:49:39.367Z,98330.44
2022-10-09T07:52:07.753Z,98335.25
2022-10-09T07:54:35.735Z,98331.16
2022-10-09T07:57:03.810Z,98327.09
2022-10-09T07:59:32.212Z,98334.09
2022-10-09T08:02:00.742Z,98324.97
2022-10-09T08:04:30.277Z,98323.34
2022-10-09T08:06:59.977Z,98320.75
2022-10-09T08:09:28.451Z,98326.19
2022-10-09T08:11:57.291Z,98331.19
2022-10-09T08:14:25.649Z,98324.03
2022-10-09T08:16:53.758Z,98329.66
2022-10-09T08:19:23.680Z,98324.00
2022-10-09T08:21:53.149Z,98317.84
2022-10-09T08:24:21.311Z,98322.75
2022-10-09T08:26:49.390Z,98321.69
2022-10-09T08:29:20.549Z,98317.69
2022-10-09T08:31:48.529Z,98309.22
2022-10-09T08:34:16.909Z,98309.44
2022-10-09T08:36:46.382Z,98304.28
2022-10-09T08:39:16.284Z,98313.44
2022-10-09T08:41:45.841Z,98313.25
2022-10-09T08:44:17.831Z,98298.13
2022-10-09T08:46:54.511Z,98301.47
2022-10-09T08:49:26.239Z,98303.41
2022-10-09T08:51:54.281Z,98302.44
2022-10-09T08:54:27.768Z,98296.69
2022-10-09T08:56:56.070Z,98287.75
2022-10-09T08:59:24.551Z,98291.53
2022-10-09T09:01:56.198Z,98290.34
2022-10-09T09:04:35.453Z,98282.41
2022-10-09T09:07:09.138Z,98282.63
2022-10-09T09:09:47.591Z,98285.69
2022-10-09T09:12:19.231Z,98284.59
2022-10-09T09:14:59.541Z,98276.31
2022-10-09T09:17:30.732Z,98275.91
2022-10-09T09:20:04.849Z,98279.38
2022-10-09T09:22:33.465Z,98269.63
2022-10-09T09:25:04.450Z,98267.94
2022-10-09T09:27:34.232Z,98263.19
2022-10-09T09:30:05.047Z,98261.94
2022-10-09T09:32:34.164Z,98251.28
2022-10-09T09:35:08.476Z,98263.75
2022-10-09T09:37:37.855Z,98253.66
2022-10-09T09:40:35.984Z,98246.28
2022-10-09T09:49:55.082Z,98237.28
2022-10-09T09:52:23.359Z,98229.34
2022-10-09T09:54:51.605Z,98230.59
2022-10-09T09:57:28.059Z,98224.97
2022-10-09T09:59:56.311Z,98232.31
2022-10-09T10:02:26.311Z,98223.63
2022-10-09T10:04:55.694Z,98218.00
2022-10-09T10:07:31.573Z,98210.34
2022-10-09T10:10:04.659Z,98210.97
2022-10-09T10:12:34.759Z,98204.28
2022-10-09T10:15:03.156Z,98210.50
2022-10-09T10:17:31.647Z,98209.53
2022-10-09T10:19:59.920Z,98201.84
2022-10-09T10:22:29.553Z,98204.59
2022-10-09T10:24:58.279Z,98195.56
2022-10-09T10:27:28.836Z,98195.16
2022-10-09T10:29:59.851Z,98192.50
2022-10-09T10:32:31.735Z,98190.56
2022-10-09T10:35:18.950Z,98188.66
2022-10-09T10:37:48.520Z,98182.97
2022-10-09T10:40:18.137Z,98181.72
2022-10-09T10:42:57.381Z,98177.63
2022-10-09T10:45:31.828Z,98171.88
2022-10-09T10:48:00.090Z,98170.34
2022-10-09T10:50:29.799Z,98160.09
2022-10-09T10:53:03.536Z,98157.34
2022-10-09T10:55:38.314Z,98155.94
2022-10-09T10:58:17.456Z,98153.19
2022-10-09T11:00:51.808Z,98146.84
2022-10-09T11:03:29.058Z,98149.75
2022-10-09T11:05:58.207Z,98147.41
2022-10-09T11:08:35.978Z,98131.50
2022-10-09T11:11:06.349Z,98142.47
2022-10-09T11:13:38.450Z,98126.97
2022-10-09T11:16:17.077Z,98130.13
2022-10-09T11:18:54.275Z,98129.41
2022-10-09T11:21:48.749Z,98128.28
2022-10-09T11:24:27.095Z,98109.28
2022-10-09T11:27:03.200Z,98109.66
2022-10-09T11:29:34.563Z,98097.19
2022-10-09T11:32:06.832Z,98092.94
2022-10-09T11:34:36.547Z,98100.88
2022-10-09T11:37:04.805Z,98091.66
2022-10-09T11:39:33.035Z,98089.66
2022-10-09T11:42:01.326Z,98076.06
2022-10-09T11:44:37.007Z,98083.41
2022-10-09T11:47:11.429Z,98074.78
2022-10-09T11:49:45.389Z,98072.78
2022-10-09T11:52:19.439Z,98065.16
2022-10-09T11:54:47.728Z,98056.44
2022-10-09T11:57:15.992Z,98063.31
2022-10-09T11:59:45.272Z,98053.38
2022-10-09T12:02:31.146Z,98046.66
2022-10-09T12:04:59.645Z,98041.47
2022-10-09T12:07:30.662Z,98041.34
2022-10-09T12:10:00.967Z,98037.63
2022-10-09T12:12:29.498Z,98034.66
2022-10-09T12:14:58.580Z,98026.56
2022-10-09T12:17:35.536Z,98015.13
2022-10-09T12:20:07.045Z,98016.97
2022-10-09T12:22:36.656Z,98006.09
2022-10-09T12:25:08.308Z,97995.50
2022-10-09T12:27:37.878Z,97999.06
2022-10-09T12:30:17.033Z,97993.69
2022-10-09T12:32:50.870Z,97986.59
2022-10-09T12:35:23.291Z,97991.59
2022-10-09T12:37:51.845Z,97990.44
2022-10-09T12:40:23.690Z,97989.19
2022-10-09T12:42:52.954Z,97986.44
2022-10-09T12:45:22.368Z,97979.56
2022-10-09T12:47:52.068Z,97972.53
2022-10-09T12:50:23.969Z,97971.53
2022-10-09T12:52:52.794Z,97970.16
2022-10-09T12:55:26.488Z,97966.91
2022-10-09T12:57:55.284Z,97965.13
2022-10-09T13:00:23.534Z,97962.94
2022-10-09T13:02:53.636Z,97951.09
2022-10-09T13:05:22.305Z,97953.72
2022-10-09T13:07:52.679Z,97940.91
2022-10-09T13:10:22.344Z,97950.00
2022-10-09T13:12:52.278Z,97942.91
2022-10-09T13:15:35.727Z,97933.59
2022-10-09T13:18:14.128Z,97930.03
2022-10-09T13:20:42.374Z,97929.59
2022-10-09T13:23:27.886Z,97929.97
2022-10-09T13:25:58.872Z,97923.78
2022-10-09T13:28:43.467Z,97921.88
2022-10-09T13:31:12.131Z,97914.13
2022-10-09T13:33:41.774Z,97920.78
2022-10-09T13:36:11.101Z,97922.31
2022-10-09T13:38:39.354Z,97913.53
2022-10-09T13:41:07.600Z,97914.31
2022-10-09T13:43:35.846Z,97912.38
2022-10-09T13:46:04.413Z,97897.34
2022-10-09T13:48:33.944Z,97896.78
2022-10-09T13:51:03.709Z,97891.53
2022-10-09T13:53:32.268Z,97894.78
2022-10-09T13:56:01.172Z,97890.03
2022-10-09T13:58:29.536Z,97892.47
2022-10-09T14:00:58.337Z,97888.06
2022-10-09T14:03:26.740Z,97887.69
2022-10-09T14:05:59.280Z,97879.34
2022-10-09T14:08:28.932Z,97878.81
2022-10-09T14:10:57.330Z,97877.03
2022-10-09T14:13:25.577Z,97871.47
2022-10-09T14:15:54.416Z,97867.56
2022-10-09T14:18:22.952Z,97862.44
2022-10-09T14:20:51.254Z,97863.00
2022-10-09T14:23:19.488Z,97857.69
2022-10-09T14:25:49.361Z,97865.38
2022-10-09T14:28:17.742Z,97854.72
2022-10-09T14:31:05.891Z,97850.59
2022-10-09T14:33:34.153Z,97837.53
2022-10-09T14:36:07.558Z,97837.19
2022-10-09T14:38:38.886Z,97833.81
2022-10-09T14:41:09.230Z,97833.41
2022-10-09T14:43:37.552Z,97822.91
2022-10-09T14:46:06.663Z,97824.38
2022-10-09T14:48:35.466Z,97820.78
2022-10-09T14:51:04.918Z,97817.22
2022-10-09T14:53:34.512Z,97806.19
2022-10-09T14:56:03.446Z,97805.47
2022-10-09T14:58:33.578Z,97806.47
2022-10-09T15:01:19.522Z,97804.03
2022-10-09T15:03:48.349Z,97788.91
2022-10-09T15:06:17.435Z,97793.13
2022-10-09T15:08:45.811Z,97793.00
2022-10-09T15:11:14.160Z,97787.78
2022-10-09T15:13:43.814Z,97785.13
2022-10-09T15:16:13.205Z,97782.63
2022-10-09T15:18:41.603Z,97781.22
2022-10-09T15:21:13.469Z,97773.06
2022-10-09T15:23:41.737Z,97769.56
2022-10-09T15:26:10.321Z,97767.72
2022-10-09T15:28:38.877Z,97770.59
2022-10-09T15:31:10.238Z,97762.66
2022-10-09T15:33:38.494Z,97758.78
2022-10-09T15:36:06.840Z,97770.03
2022-10-09T15:38:35.371Z,97759.09
2022-10-09T15:43:49.552Z,97755.84
2022-10-09T15:46:19.286Z,97748.47
2022-10-09T15:48:47.666Z,97745.53
2022-10-09T15:51:15.916Z,97749.16
2022-10-09T15:53:44.794Z,97750.63
2022-10-09T15:56:17.255Z,97747.31
2022-10-09T15:58:45.561Z,97740.28
2022-10-09T16:01:14.768Z,97740.34
2022-10-09T16:03:44.766Z,97735.66
2022-10-09T16:06:13.856Z,97730.91
2022-10-09T16:08:42.492Z,97735.78
2022-10-09T16:11:11.876Z,97727.34
2022-10-09T16:13:59.353Z,97724.31
2022-10-09T16:16:28.915Z,97723.28
2022-10-09T16:19:00.592Z,97721.28
2022-10-09T16:21:29.653Z,97721.28
2022-10-09T16:23:59.578Z,97720.22
2022-10-09T16:26:28.619Z,97725.38
2022-10-09T16:28:56.850Z,97717.91
2022-10-09T16:31:26.148Z,97718.06
2022-10-09T16:33:54.481Z,97719.22
2022-10-09T16:36:24.377Z,97719.25
2022-10-09T16:39:10.916Z,97710.94
2022-10-09T16:41:41.963Z,97714.63
2022-10-09T16:44:13.426Z,97705.75
2022-10-09T16:46:41.978Z,97709.84
2022-10-09T16:49:14.766Z,97705.66
2022-10-09T16:51:44.448Z,97705.81
2022-10-09T16:54:12.713Z,97704.28
2022-10-09T16:56:41.411Z,97703.88
2022-10-09T16:59:11.389Z,97701.19
2022-10-09T17:01:43.765Z,97703.84
2022-10-09T17:04:13.120Z,97699.31
2022-10-09T17:06:46.683Z,97704.41
2022-10-09T17:09:15.009Z,97701.16
2022-10-09T17:11:43.262Z,97709.22
2022-10-09T17:14:12.382Z,97705.69
2022-10-09T17:16:41.220Z,97703.13
2022-10-09T17:19:29.662Z,97701.28
2022-10-09T17:22:01.332Z,97702.97
2022-10-09T17:24:29.734Z,97703.25
2022-10-09T17:26:58.577Z,97709.19
2022-10-09T17:29:26.877Z,97703.41
2022-10-09T17:31:55.145Z,97701.69
2022-10-09T17:34:23.439Z,97703.25
2022-10-09T17:36:54.609Z,97705.94
2022-10-09T17:39:24.618Z,97693.63
2022-10-09T17:41:52.876Z,97691.31
2022-10-09T17:44:22.952Z,97693.59
2022-10-09T17:46:51.200Z,97696.22
2022-10-09T17:49:20.315Z,97699.59
2022-10-09T17:51:49.632Z,97687.88
2022-10-09T17:54:18.201Z,97686.72
2022-10-09T17:56:47.833Z,97685.88
2022-10-09T17:59:16.916Z,97677.97
2022-10-09T18:01:45.501Z,97677.81
2022-10-09T18:04:16.447Z,97679.69
2022-10-09T18:09:30.292Z,97672.44
2022-10-09T18:12:00.056Z,97666.91
2022-10-09T18:14:28.326Z,97663.09
2022-10-09T18:16:56.587Z,97662.94
2022-10-09T18:19:24.850Z,97662.19
2022-10-09T18:24:38.818Z,97655.75
2022-10-09T18:27:08.484Z,97655.13
2022-10-09T18:29:37.170Z,97656.47
2022-10-09T18:32:05.994Z,97647.16
2022-10-09T18:34:38.921Z,97649.00
2022-10-09T18:37:07.839Z,97646.19
2022-10-09T18:39:36.380Z,97643.28
2022-10-09T18:42:05.114Z,97649.91
2022-10-09T18:44:40.989Z,97644.59
2022-10-09T18:47:11.941Z,97638.50
2022-10-09T18:49:42.155Z,97640.97
2022-10-09T18:52:10.576Z,97633.53
2022-10-09T18:57:26.021Z,97636.59
2022-10-09T18:59:55.677Z,97626.72
2022-10-09T19:02:26.693Z,97632.94
2022-10-09T19:04:55.067Z,97624.44
2022-10-09T19:07:23.341Z,97626.00
2022-10-09T19:09:57.016Z,97624.25
2022-10-09T19:12:25.670Z,97626.94
2022-10-09T19:15:12.706Z,97614.66
2022-10-09T19:17:42.297Z,97613.13
2022-10-09T19:20:11.052Z,97613.53
2022-10-09T19:22:40.528Z,97609.31
2022-10-09T19:25:09.178Z,97611.63
2022-10-09T19:27:37.402Z,97611.50
2022-10-09T19:30:06.186Z,97611.25
2022-10-09T19:32:34.425Z,97606.56
2022-10-09T19:35:04.401Z,97608.09
2022-10-09T19:37:32.632Z,97603.03
2022-10-09T19:40:01.038Z,97602.56
2022-10-09T19:42:48.114Z,97600.16
2022-10-09T19:45:16.455Z,97599.19
2022-10-09T19:47:44.719Z,97600.03
2022-10-09T19:50:15.198Z,97591.47
2022-10-09T19:52:43.463Z,97593.84
2022-10-09T19:55:11.723Z,97595.97
2022-10-09T19:57:40.103Z,97587.03
2022-10-09T20:00:09.490Z,97593.06
2022-10-09T20:02:37.754Z,97591.22
2022-10-09T20:05:06.479Z,97590.63
2022-10-09T20:07:36.123Z,97594.47
2022-10-09T20:10:04.596Z,97587.28
2022-10-09T20:12:33.165Z,97587.03
2022-10-09T20:15:01.416Z,97587.03
2022-10-09T20:17:29.639Z,97587.16
2022-10-09T20:20:03.668Z,97581.22
2022-10-09T20:22:37.803Z,97589.84
2022-10-09T20:25:08.835Z,97580.94
2022-10-09T20:27:37.337Z,97583.50
2022-10-09T20:30:05.994Z,97584.88
2022-10-09T20:32:37.075Z,97586.19
2022-10-09T20:35:06.278Z,97577.41
2022-10-09T20:37:35.150Z,97584.22
2022-10-09T20:40:03.462Z,97583.50
2022-10-09T20:42:33.869Z,97581.13
2022-10-09T20:45:02.143Z,97584.34
2022-10-09T20:47:30.380Z,97577.16
2022-10-09T20:49:59.080Z,97574.47
2022-10-09T20:52:27.374Z,97573.63
2022-10-09T20:54:55.601Z,97563.94
2022-10-09T20:57:23.858Z,97559.16
2022-10-09T20:59:53.458Z,97563.50
2022-10-09T21:02:22.035Z,97565.59
2022-10-09T21:04:50.278Z,97563.94
2022-10-09T21:07:18.503Z,97561.66
2022-10-09T21:09:47.078Z,97558.41
2022-10-09T21:12:15.315Z,97559.25
2022-10-09T21:14:43.583Z,97554.63
2022-10-09T21:17:13.224Z,97553.63
2022-10-09T21:19:41.791Z,97557.91
2022-10-09T21:22:27.287Z,97559.84
2022-10-09T21:24:55.552Z,97556.75
2022-10-09T21:27:28.220Z,97558.44
2022-10-09T21:29:57.885Z,97556.75
2022-10-09T21:32:27.816Z,97554.19
2022-10-09T21:34:56.079Z,97557.59
2022-10-09T21:37:24.367Z,97552.97
2022-10-09T21:39:52.589Z,97557.00
2022-10-09T21:42:20.849Z,97553.03
2022-10-09T21:44:49.377Z,97554.75
2022-10-09T21:47:19.004Z,97555.59
2022-10-09T21:49:48.843Z,97544.88
2022-10-09T21:52:17.396Z,97544.75
2022-10-09T21:54:46.002Z,97549.13
2022-10-09T21:57:14.293Z,97541.34
2022-10-09T21:59:42.538Z,97542.19
2022-10-09T22:02:11.145Z,97537.25
2022-10-09T22:04:39.410Z,97542.19
2022-10-09T22:07:09.009Z,97548.13
2022-10-09T22:09:37.665Z,97527.22
2022-10-09T22:12:06.321Z,97529.91
2022-10-09T22:14:34.623Z,97533.44
2022-10-09T22:17:03.488Z,97534.66
2022-10-09T22:19:32.797Z,97531.41
2022-10-09T22:22:01.046Z,97526.63
2022-10-09T22:24:30.672Z,97520.28
2022-10-09T22:26:58.940Z,97518.88
2022-10-09T22:29:27.177Z,97513.78
2022-10-09T22:31:55.427Z,97519.38
2022-10-09T22:34:23.928Z,97515.91
2022-10-09T22:36:52.196Z,97511.50
2022-10-09T22:39:20.434Z,97510.25
2022-10-09T22:41:50.062Z,97507.13
2022-10-09T22:44:18.810Z,97510.38
2022-10-09T22:46:47.950Z,97508.41
2022-10-09T22:49:16.406Z,97502.63
2022-10-09T22:51:45.118Z,97508.66
2022-10-09T22:54:15.173Z,97504.31
2022-10-09T22:56:44.596Z,97504.72
2022-10-09T22:59:15.666Z,97498.25
2022-10-09T23:01:45.385Z,97500.06
2022-10-09T23:04:14.261Z,97494.84
2022-10-09T23:06:45.028Z,97495.09
2022-10-09T23:09:14.528Z,97493.69
2022-10-09T23:11:42.876Z,97500.16
2022-10-09T23:14:11.783Z,97488.59
2022-10-09T23:16:41.774Z,97496.06
2022-10-09T23:19:10.247Z,97492.38
2022-10-09T23:21:39.326Z,97483.47
2022-10-09T23:24:08.075Z,97486.31
2022-10-09T23:26:36.732Z,97478.41
2022-10-09T23:29:05.970Z,97482.31
2022-10-09T23:31:34.257Z,97480.91
2022-10-09T23:34:04.186Z,97476.00
2022-10-09T23:36:32.490Z,97476.91
2022-10-09T23:39:00.822Z,97473.69
2022-10-09T23:41:29.371Z,97469.16
2022-10-09T23:43:58.235Z,97482.69
2022-10-09T23:46:27.521Z,97469.41
2022-10-09T23:48:55.990Z,97471.25
2022-10-09T23:51:27.053Z,97471.91
2022-10-09T23:53:55.284Z,97466.56
2022-10-09T23:56:24.729Z,97466.44
2022-10-09T23:58:54.045Z,97460.59
